createdAt,value
2018-12-08T00:01:08.324Z,13.57
2018-12-08T00:03:36.688Z,14.10
2018-12-08T00:06:05.004Z,8.87
2018-12-08T00:08:33.324Z,8.10
2018-12-08T00:11:01.643Z,13.07
2018-12-08T00:13:30.075Z,16.97
2018-12-08T00:15:58.400Z,7.70
2018-12-08T00:18:26.841Z,6.43
2018-12-08T00:20:55.219Z,12.40
2018-12-08T00:23:23.542Z,11.43
2018-12-08T00:25:51.867Z,10.80
2018-12-08T00:28:20.212Z,9.40
2018-12-08T00:30:59.816Z,10.40
2018-12-08T00:33:28.184Z,5.70
2018-12-08T00:35:56.555Z,13.03
2018-12-08T00:38:24.896Z,9.13
2018-12-08T00:40:53.263Z,14.73
2018-12-08T00:43:21.615Z,5.97
2018-12-08T00:45:50.075Z,7.33
2018-12-08T00:48:18.413Z,6.10
2018-12-08T00:50:46.753Z,6.90
2018-12-08T00:53:15.128Z,10.73
2018-12-08T00:55:43.459Z,7.77
2018-12-08T00:58:11.807Z,22.27
2018-12-08T01:00:40.150Z,10.27
2018-12-08T01:03:08.616Z,5.00
2018-12-08T01:05:36.962Z,6.07
2018-12-08T01:08:05.323Z,13.87
2018-12-08T01:10:33.657Z,5.53
2018-12-08T01:13:02.092Z,6.73
2018-12-08T01:15:30.446Z,5.90
2018-12-08T01:17:58.776Z,12.37
2018-12-08T01:20:27.252Z,8.13
2018-12-08T01:22:55.585Z,7.70
2018-12-08T01:25:24.030Z,3.90
2018-12-08T01:27:52.351Z,9.17
2018-12-08T01:30:20.683Z,6.73
2018-12-08T01:32:49.033Z,6.73
2018-12-08T01:35:17.362Z,10.13
2018-12-08T01:37:45.712Z,9.80
2018-12-08T01:40:14.060Z,7.40
2018-12-08T01:42:44.411Z,4.67
2018-12-08T01:45:12.877Z,10.50
2018-12-08T01:47:41.323Z,4.63
2018-12-08T01:50:09.662Z,11.30
2018-12-08T01:52:38.015Z,10.27
2018-12-08T01:55:06.435Z,7.13
2018-12-08T01:57:34.779Z,7.37
2018-12-08T02:00:03.269Z,9.20
2018-12-08T02:02:31.717Z,19.63
2018-12-08T02:05:00.193Z,6.47
2018-12-08T02:07:28.537Z,5.67
2018-12-08T02:09:56.985Z,8.90
2018-12-08T02:12:25.398Z,16.83
2018-12-08T02:14:53.758Z,4.20
2018-12-08T02:17:22.098Z,8.73
2018-12-08T02:19:50.466Z,3.93
2018-12-08T02:22:18.933Z,7.03
2018-12-08T02:24:47.290Z,6.73
2018-12-08T02:27:15.666Z,6.33
2018-12-08T02:29:44.023Z,5.57
2018-12-08T02:32:12.392Z,4.23
2018-12-08T02:34:40.778Z,11.57
2018-12-08T02:37:09.251Z,5.57
2018-12-08T02:39:37.634Z,8.83
2018-12-08T02:42:05.999Z,4.40
2018-12-08T02:44:34.354Z,8.60
2018-12-08T02:47:02.672Z,4.93
2018-12-08T02:49:31.016Z,10.53
2018-12-08T02:51:59.630Z,3.30
2018-12-08T02:54:28.069Z,7.33
2018-12-08T02:56:56.728Z,4.97
2018-12-08T02:59:25.157Z,9.30
2018-12-08T03:01:53.533Z,6.37
2018-12-08T03:04:21.873Z,8.67
2018-12-08T03:06:50.234Z,6.73
2018-12-08T03:09:18.592Z,6.07
2018-12-08T03:11:46.971Z,8.30
2018-12-08T03:14:15.323Z,7.47
2018-12-08T03:16:43.658Z,8.67
2018-12-08T03:19:12.009Z,5.77
2018-12-08T03:21:40.307Z,5.83
2018-12-08T03:24:08.679Z,6.77
2018-12-08T03:26:36.998Z,5.03
2018-12-08T03:29:05.350Z,3.50
2018-12-08T03:31:33.810Z,6.47
2018-12-08T03:34:02.235Z,3.83
2018-12-08T03:36:30.573Z,11.17
2018-12-08T03:38:58.896Z,7.37
2018-12-08T03:41:27.233Z,5.67
2018-12-08T03:43:55.550Z,7.30
2018-12-08T03:46:23.881Z,4.80
2018-12-08T03:48:52.207Z,4.20
2018-12-08T03:51:20.536Z,8.57
2018-12-08T03:53:48.888Z,6.57
2018-12-08T03:56:17.343Z,4.93
2018-12-08T03:58:45.693Z,6.13
2018-12-08T04:01:14.128Z,7.37
2018-12-08T04:03:42.476Z,9.43
2018-12-08T04:06:10.800Z,4.43
2018-12-08T04:08:39.171Z,10.87
2018-12-08T04:11:07.515Z,4.57
2018-12-08T04:13:35.874Z,14.00
2018-12-08T04:16:04.300Z,4.57
2018-12-08T04:18:32.666Z,7.80
2018-12-08T04:21:01.099Z,10.60
2018-12-08T04:23:29.406Z,4.93
2018-12-08T04:25:57.758Z,14.13
2018-12-08T04:28:26.087Z,21.60
2018-12-08T04:30:54.419Z,12.53
2018-12-08T04:33:22.730Z,11.17
2018-12-08T04:35:51.067Z,10.47
2018-12-08T04:38:19.360Z,9.03
2018-12-08T04:40:47.699Z,7.23
2018-12-08T04:43:16.028Z,5.47
2018-12-08T04:45:44.370Z,4.97
2018-12-08T04:48:12.733Z,8.90
2018-12-08T04:50:41.080Z,13.27
2018-12-08T04:53:09.412Z,10.50
2018-12-08T04:55:37.730Z,9.97
2018-12-08T04:58:06.074Z,7.80
2018-12-08T05:00:34.422Z,6.47
2018-12-08T05:03:02.770Z,6.70
2018-12-08T05:05:31.086Z,5.23
2018-12-08T05:07:59.410Z,10.43
2018-12-08T05:10:27.750Z,3.83
2018-12-08T05:12:56.062Z,5.63
2018-12-08T05:15:24.389Z,7.77
2018-12-08T05:17:52.760Z,17.07
2018-12-08T05:20:21.110Z,6.90
2018-12-08T05:22:49.440Z,5.30
2018-12-08T05:25:17.787Z,11.93
2018-12-08T05:27:46.138Z,10.73
2018-12-08T05:30:14.502Z,6.80
2018-12-08T05:32:42.891Z,13.83
2018-12-08T05:35:11.251Z,10.00
2018-12-08T05:37:39.608Z,10.70
2018-12-08T05:40:08.156Z,15.17
2018-12-08T05:42:36.482Z,9.40
2018-12-08T05:45:04.965Z,12.80
2018-12-08T05:47:33.294Z,6.63
2018-12-08T05:50:01.649Z,15.47
2018-12-08T05:52:29.962Z,10.97
2018-12-08T05:54:58.327Z,5.03
2018-12-08T05:57:26.662Z,11.50
2018-12-08T05:59:55.017Z,14.13
2018-12-08T06:02:23.348Z,12.37
2018-12-08T06:04:51.675Z,5.93
2018-12-08T06:07:20.007Z,14.47
2018-12-08T06:09:48.346Z,15.27
2018-12-08T06:12:16.780Z,9.57
2018-12-08T06:14:45.087Z,9.27
2018-12-08T06:17:13.482Z,22.43
2018-12-08T06:19:41.867Z,14.37
2018-12-08T06:22:10.187Z,9.87
2018-12-08T06:24:38.736Z,5.93
2018-12-08T06:28:02.378Z,6.17
2018-12-08T06:30:30.709Z,6.73
2018-12-08T06:32:59.043Z,7.70
2018-12-08T06:35:27.358Z,12.77
2018-12-08T06:37:55.861Z,9.57
2018-12-08T06:40:29.196Z,13.33
2018-12-08T06:42:54.578Z,10.43
2018-12-08T06:45:23.004Z,6.73
2018-12-08T06:47:51.337Z,9.53
2018-12-08T06:52:54.245Z,12.17
2018-12-08T06:55:22.784Z,10.00
2018-12-08T06:57:51.118Z,6.10
2018-12-08T07:00:19.461Z,13.83
2018-12-08T07:02:47.885Z,9.27
2018-12-08T07:05:16.241Z,6.93
2018-12-08T07:07:44.607Z,12.63
2018-12-08T07:10:13.078Z,18.30
2018-12-08T07:12:41.477Z,10.17
2018-12-08T07:15:09.909Z,18.57
2018-12-08T07:17:38.293Z,7.03
2018-12-08T07:20:07.309Z,13.93
2018-12-08T07:22:35.776Z,7.57
2018-12-08T07:25:04.515Z,12.20
2018-12-08T07:27:32.860Z,14.80
2018-12-08T07:30:01.232Z,11.80
2018-12-08T07:32:29.585Z,20.03
2018-12-08T07:34:57.915Z,14.73
2018-12-08T07:37:26.263Z,16.10
2018-12-08T07:39:54.619Z,10.83
2018-12-08T07:42:22.960Z,10.47
2018-12-08T07:44:51.304Z,12.07
2018-12-08T07:47:19.655Z,21.03
2018-12-08T07:49:48.033Z,11.07
2018-12-08T07:52:16.416Z,10.00
2018-12-08T07:54:44.844Z,11.70
2018-12-08T07:57:13.196Z,19.57
2018-12-08T07:59:41.574Z,111.97
2018-12-08T08:02:10.039Z,179.27
2018-12-08T08:04:38.499Z,153.00
2018-12-08T08:07:06.888Z,102.60
2018-12-08T08:09:35.256Z,109.03
2018-12-08T08:12:04.658Z,183.03
2018-12-08T08:14:39.729Z,102.93
2018-12-08T08:17:08.337Z,122.43
2018-12-08T08:19:36.711Z,234.03
2018-12-08T08:22:05.044Z,79.23
2018-12-08T08:24:33.380Z,76.60
2018-12-08T08:27:01.738Z,33.47
2018-12-08T08:29:30.114Z,29.70
2018-12-08T08:31:58.599Z,54.37
2018-12-08T08:34:26.970Z,45.10
2018-12-08T08:36:55.325Z,30.20
2018-12-08T08:39:23.971Z,22.80
2018-12-08T08:41:52.316Z,74.17
2018-12-08T08:44:20.665Z,51.73
2018-12-08T08:46:49.049Z,24.67
2018-12-08T08:49:17.395Z,18.87
2018-12-08T08:51:45.751Z,17.77
2018-12-08T08:54:14.183Z,24.57
2018-12-08T08:56:42.640Z,15.87
2018-12-08T08:59:11.012Z,30.10
2018-12-08T09:01:39.401Z,10.53
2018-12-08T09:04:07.800Z,10.73
2018-12-08T09:06:36.154Z,14.63
2018-12-08T09:09:06.419Z,12.33
2018-12-08T09:11:34.862Z,21.40
2018-12-08T09:14:03.387Z,17.40
2018-12-08T09:16:31.950Z,15.57
2018-12-08T09:19:00.295Z,7.10
2018-12-08T09:21:28.668Z,14.00
2018-12-08T09:23:57.009Z,11.47
2018-12-08T09:26:25.386Z,9.90
2018-12-08T09:28:53.792Z,10.33
2018-12-08T09:31:22.171Z,10.60
2018-12-08T09:33:50.528Z,4.60
2018-12-08T09:36:18.899Z,11.17
2018-12-08T09:38:47.263Z,13.83
2018-12-08T09:41:15.632Z,8.27
2018-12-08T09:43:43.978Z,21.83
2018-12-08T09:46:12.325Z,7.83
2018-12-08T09:48:40.670Z,17.87
2018-12-08T09:51:09.076Z,9.23
2018-12-08T09:53:37.443Z,9.27
2018-12-08T09:56:05.841Z,17.67
2018-12-08T09:58:34.252Z,12.07
2018-12-08T10:01:02.599Z,12.37
2018-12-08T10:03:30.948Z,9.33
2018-12-08T10:05:59.287Z,15.47
2018-12-08T10:08:27.635Z,16.83
2018-12-08T10:10:55.979Z,11.60
2018-12-08T10:13:24.330Z,18.93
2018-12-08T10:15:52.681Z,17.93
2018-12-08T10:18:21.074Z,9.90
2018-12-08T10:20:49.393Z,13.30
2018-12-08T10:23:26.176Z,17.40
2018-12-08T10:25:54.530Z,15.07
2018-12-08T10:28:23.023Z,13.03
2018-12-08T10:30:51.373Z,9.40
2018-12-08T10:33:19.738Z,15.00
2018-12-08T10:35:48.234Z,16.67
2018-12-08T10:38:16.712Z,11.60
2018-12-08T10:40:45.180Z,8.93
2018-12-08T10:43:13.528Z,11.03
2018-12-08T10:45:41.885Z,10.70
2018-12-08T10:48:10.261Z,14.17
2018-12-08T10:50:38.630Z,14.53
2018-12-08T10:53:07.021Z,12.20
2018-12-08T10:55:35.376Z,11.97
2018-12-08T10:58:03.767Z,7.87
2018-12-08T11:00:37.382Z,8.77
2018-12-08T11:03:11.050Z,10.33
2018-12-08T11:05:39.448Z,10.53
2018-12-08T11:08:07.842Z,11.20
2018-12-08T11:10:36.233Z,10.20
2018-12-08T11:13:04.746Z,10.87
2018-12-08T11:15:33.106Z,6.83
2018-12-08T11:18:02.450Z,8.00
2018-12-08T11:20:31.453Z,9.50
2018-12-08T11:22:59.922Z,10.67
2018-12-08T11:25:28.333Z,13.83
2018-12-08T11:27:56.644Z,11.77
2018-12-08T11:30:25.112Z,8.47
2018-12-08T11:32:53.489Z,8.73
2018-12-08T11:35:21.814Z,7.73
2018-12-08T11:37:50.321Z,11.00
2018-12-08T11:40:19.092Z,3.27
2018-12-08T11:42:47.478Z,15.30
2018-12-08T11:45:15.945Z,9.53
2018-12-08T11:47:44.297Z,6.33
2018-12-08T11:50:12.768Z,11.17
2018-12-08T11:52:41.116Z,6.67
2018-12-08T11:55:09.586Z,9.30
2018-12-08T11:57:38.015Z,8.40
2018-12-08T12:00:08.230Z,8.47
2018-12-08T12:02:36.729Z,11.37
2018-12-08T12:05:05.935Z,12.60
2018-12-08T12:07:34.287Z,8.97
2018-12-08T12:10:02.634Z,7.33
2018-12-08T12:12:30.995Z,8.27
2018-12-08T12:14:59.373Z,4.63
2018-12-08T12:17:27.747Z,10.20
2018-12-08T12:19:56.090Z,9.03
2018-12-08T12:22:24.514Z,6.00
2018-12-08T12:24:52.928Z,12.13
2018-12-08T12:27:21.566Z,9.87
2018-12-08T12:29:49.950Z,12.73
2018-12-08T12:32:18.343Z,7.27
2018-12-08T12:34:46.705Z,7.73
2018-12-08T12:37:15.133Z,8.00
2018-12-08T12:39:43.459Z,5.00
2018-12-08T12:42:11.796Z,8.13
2018-12-08T12:44:40.181Z,10.23
2018-12-08T12:47:08.525Z,6.93
2018-12-08T12:49:37.142Z,18.33
2018-12-08T12:52:05.688Z,12.23
2018-12-08T12:54:34.052Z,14.97
2018-12-08T12:57:02.394Z,11.23
2018-12-08T12:59:30.745Z,16.40
2018-12-08T13:01:59.465Z,9.00
2018-12-08T13:04:27.796Z,15.10
2018-12-08T13:06:56.146Z,13.10
2018-12-08T13:09:24.505Z,5.80
2018-12-08T13:11:53.602Z,9.73
2018-12-08T13:14:22.002Z,10.07
2018-12-08T13:16:50.386Z,13.67
2018-12-08T13:19:18.789Z,15.63
2018-12-08T13:21:47.150Z,18.23
2018-12-08T13:24:15.660Z,10.73
2018-12-08T13:26:44.216Z,10.70
2018-12-08T13:29:12.568Z,18.30
2018-12-08T13:31:40.957Z,14.97
2018-12-08T13:34:20.540Z,21.30
2018-12-08T13:36:48.895Z,7.87
2018-12-08T13:39:17.309Z,17.17
2018-12-08T13:41:45.685Z,13.00
2018-12-08T13:44:24.120Z,12.67
2018-12-08T13:46:52.676Z,13.43
2018-12-08T13:49:21.043Z,13.70
2018-12-08T13:51:49.427Z,7.30
2018-12-08T13:54:28.962Z,11.97
2018-12-08T13:56:57.374Z,16.13
2018-12-08T13:59:25.731Z,13.77
2018-12-08T14:01:54.426Z,13.90
2018-12-08T14:04:22.765Z,7.80
2018-12-08T14:06:51.110Z,17.03
2018-12-08T14:09:19.485Z,15.67
2018-12-08T14:11:47.852Z,6.80
2018-12-08T14:14:16.227Z,10.90
2018-12-08T14:16:44.639Z,8.90
2018-12-08T14:19:13.066Z,12.13
2018-12-08T14:21:41.513Z,9.63
2018-12-08T14:24:09.873Z,5.67
2018-12-08T14:26:38.262Z,8.27
2018-12-08T14:29:06.681Z,9.57
2018-12-08T14:31:35.548Z,13.07
2018-12-08T14:34:04.045Z,9.60
2018-12-08T14:36:32.439Z,15.53
2018-12-08T14:39:00.803Z,19.07
2018-12-08T14:41:29.215Z,14.53
2018-12-08T14:43:57.571Z,8.97
2018-12-08T14:46:26.074Z,11.87
2018-12-08T14:48:54.479Z,7.53
2018-12-08T14:51:22.835Z,9.50
2018-12-08T14:53:51.269Z,6.57
2018-12-08T14:56:19.692Z,15.60
2018-12-08T14:58:48.059Z,12.97
2018-12-08T15:01:16.400Z,7.80
2018-12-08T15:03:44.821Z,8.47
2018-12-08T15:06:13.182Z,10.17
2018-12-08T15:08:41.688Z,12.43
2018-12-08T15:11:10.112Z,14.60
2018-12-08T15:13:38.529Z,9.87
2018-12-08T15:16:06.952Z,12.30
2018-12-08T15:18:35.553Z,10.20
2018-12-08T15:21:04.147Z,14.70
2018-12-08T15:23:32.583Z,11.37
2018-12-08T15:26:01.005Z,18.13
2018-12-08T15:28:29.414Z,14.20
2018-12-08T15:30:57.823Z,9.20
2018-12-08T15:33:27.275Z,14.30
2018-12-08T15:35:55.811Z,11.50
2018-12-08T15:38:24.253Z,16.87
2018-12-08T15:40:52.745Z,16.77
2018-12-08T15:43:21.133Z,15.73
2018-12-08T15:45:49.688Z,15.77
2018-12-08T15:48:18.151Z,20.47
2018-12-08T15:50:46.497Z,15.60
2018-12-08T15:53:15.149Z,12.57
2018-12-08T15:55:43.570Z,17.63
2018-12-08T15:58:12.074Z,14.13
2018-12-08T16:00:40.417Z,11.23
2018-12-08T16:03:08.807Z,15.43
2018-12-08T16:05:37.311Z,28.37
2018-12-08T16:08:05.687Z,17.57
2018-12-08T16:10:34.117Z,20.80
2018-12-08T16:13:02.468Z,17.10
2018-12-08T16:15:30.845Z,13.40
2018-12-08T16:17:59.225Z,15.97
2018-12-08T16:20:27.627Z,10.43
2018-12-08T16:22:55.953Z,9.60
2018-12-08T16:25:24.313Z,12.43
2018-12-08T16:27:52.725Z,14.30
2018-12-08T16:30:21.333Z,62.40
2018-12-08T16:32:49.709Z,111.77
2018-12-08T16:35:18.065Z,64.10
2018-12-08T16:37:46.440Z,90.60
2018-12-08T16:40:14.778Z,49.40
2018-12-08T16:42:43.121Z,19.30
2018-12-08T16:45:11.624Z,30.27
2018-12-08T16:47:40.079Z,22.33
2018-12-08T16:50:09.669Z,10.10
2018-12-08T16:52:38.143Z,12.10
2018-12-08T16:55:06.933Z,15.77
2018-12-08T16:57:35.395Z,25.97
2018-12-08T17:00:04.460Z,23.70
2018-12-08T17:02:32.809Z,19.53
2018-12-08T17:05:01.147Z,16.63
2018-12-08T17:07:29.572Z,29.67
2018-12-08T17:09:58.167Z,21.37
2018-12-08T17:12:26.528Z,22.50
2018-12-08T17:14:54.912Z,20.77
2018-12-08T17:17:23.283Z,15.20
2018-12-08T17:19:51.681Z,17.93
2018-12-08T17:22:20.037Z,29.80
2018-12-08T17:24:49.916Z,23.40
2018-12-08T17:27:18.273Z,23.30
2018-12-08T17:29:46.646Z,28.60
2018-12-08T17:32:14.973Z,23.17
2018-12-08T17:34:43.453Z,20.13
2018-12-08T17:37:11.831Z,16.97
2018-12-08T17:39:40.269Z,15.33
2018-12-08T17:42:08.619Z,15.70
2018-12-08T17:44:37.118Z,12.77
2018-12-08T17:47:05.610Z,13.80
2018-12-08T17:49:34.002Z,13.27
2018-12-08T17:52:02.546Z,16.00
2018-12-08T17:54:30.955Z,13.60
2018-12-08T17:56:59.465Z,15.77
2018-12-08T17:59:27.861Z,14.57
2018-12-08T18:01:56.259Z,15.23
2018-12-08T18:04:24.615Z,17.43
2018-12-08T18:06:53.018Z,15.73
2018-12-08T18:09:21.393Z,14.80
2018-12-08T18:11:49.883Z,11.40
2018-12-08T18:14:18.715Z,13.43
2018-12-08T18:16:47.218Z,12.37
2018-12-08T18:19:15.598Z,15.73
2018-12-08T18:21:44.011Z,12.60
2018-12-08T18:24:12.475Z,16.53
2018-12-08T18:26:42.520Z,14.80
2018-12-08T18:29:11.084Z,16.83
2018-12-08T18:31:39.459Z,12.63
2018-12-08T18:34:07.840Z,10.80
2018-12-08T18:36:36.190Z,8.10
2018-12-08T18:39:06.674Z,12.50
2018-12-08T18:41:35.017Z,17.80
2018-12-08T18:44:03.394Z,9.97
2018-12-08T18:46:31.780Z,9.10
2018-12-08T18:49:00.187Z,10.37
2018-12-08T18:51:28.573Z,10.77
2018-12-08T18:53:56.979Z,7.27
2018-12-08T18:56:25.340Z,14.90
2018-12-08T18:58:53.671Z,10.33
2018-12-08T19:01:22.061Z,10.87
2018-12-08T19:03:50.423Z,8.17
2018-12-08T19:06:18.880Z,7.03
2018-12-08T19:08:47.241Z,11.80
2018-12-08T19:11:15.658Z,9.97
2018-12-08T19:13:44.039Z,5.33
2018-12-08T19:16:12.464Z,12.37
2018-12-08T19:18:40.832Z,9.83
2018-12-08T19:21:09.169Z,9.07
2018-12-08T19:23:43.602Z,7.60
2018-12-08T19:26:07.891Z,9.23
2018-12-08T19:28:36.261Z,7.47
2018-12-08T19:31:06.256Z,5.90
2018-12-08T19:33:35.015Z,9.77
2018-12-08T19:36:03.399Z,7.07
2018-12-08T19:38:31.741Z,10.63
2018-12-08T19:41:00.098Z,11.20
2018-12-08T19:43:28.747Z,9.43
2018-12-08T19:45:57.085Z,6.60
2018-12-08T19:48:25.512Z,5.47
2018-12-08T19:50:53.871Z,6.30
2018-12-08T19:53:22.344Z,4.10
2018-12-08T19:55:50.707Z,3.00
2018-12-08T19:58:19.057Z,3.40
2018-12-08T20:00:47.443Z,4.27
2018-12-08T20:03:15.896Z,2.03
2018-12-08T20:05:44.279Z,2.57
2018-12-08T20:08:12.616Z,3.53
2018-12-08T20:10:40.981Z,3.93
2018-12-08T20:13:09.311Z,5.33
2018-12-08T20:15:37.692Z,3.10
2018-12-08T20:18:06.130Z,2.27
2018-12-08T20:20:34.489Z,1.73
2018-12-08T20:23:02.839Z,3.27
2018-12-08T20:25:31.195Z,5.67
2018-12-08T20:27:59.530Z,3.10
2018-12-08T20:30:27.918Z,32.10
2018-12-08T20:32:56.299Z,113.27
2018-12-08T20:35:24.637Z,82.03
2018-12-08T20:37:53.017Z,8.63
2018-12-08T20:40:21.404Z,10.87
2018-12-08T20:42:51.035Z,6.30
2018-12-08T20:45:19.395Z,12.27
2018-12-08T20:47:47.877Z,38.30
2018-12-08T20:50:16.271Z,37.50
2018-12-08T20:52:44.632Z,44.80
2018-12-08T20:55:12.962Z,12.10
2018-12-08T20:57:41.338Z,33.80
2018-12-08T21:00:09.861Z,19.43
2018-12-08T21:02:38.197Z,8.20
2018-12-08T21:05:06.661Z,2.03
2018-12-08T21:07:35.006Z,9.03
2018-12-08T21:10:03.516Z,8.93
2018-12-08T21:12:31.883Z,18.47
2018-12-08T21:15:00.241Z,25.43
2018-12-08T21:17:28.592Z,10.97
2018-12-08T21:19:57.049Z,15.23
2018-12-08T21:22:25.488Z,11.10
2018-12-08T21:24:53.901Z,10.17
2018-12-08T21:27:22.336Z,5.40
2018-12-08T21:29:50.662Z,15.70
2018-12-08T21:32:18.997Z,7.70
2018-12-08T21:34:48.274Z,8.53
2018-12-08T21:37:16.618Z,0.37
2018-12-08T21:39:44.961Z,4.43
2018-12-08T21:42:13.292Z,2.57
2018-12-08T21:44:41.656Z,2.73
2018-12-08T21:47:09.992Z,2.47
2018-12-08T21:49:38.349Z,1.53
2018-12-08T21:52:06.785Z,2.03
2018-12-08T21:54:35.147Z,1.10
2018-12-08T21:57:03.624Z,2.30
2018-12-08T21:59:31.982Z,1.00
2018-12-08T22:02:00.524Z,0.70
2018-12-08T22:04:28.838Z,0.10
2018-12-08T22:06:57.378Z,0.10
2018-12-08T22:09:25.811Z,0.00
2018-12-08T22:11:54.271Z,0.30
2018-12-08T22:14:22.730Z,0.10
2018-12-08T22:16:51.050Z,0.30
2018-12-08T22:19:19.393Z,0.20
2018-12-08T22:21:47.724Z,0.30
2018-12-08T22:24:16.089Z,3.20
2018-12-08T22:26:44.463Z,0.60
2018-12-08T22:29:12.807Z,4.00
2018-12-08T22:31:41.157Z,0.80
2018-12-08T22:34:09.487Z,0.20
2018-12-08T22:36:37.824Z,1.07
2018-12-08T22:39:07.531Z,0.33
2018-12-08T22:41:35.856Z,1.50
2018-12-08T22:44:04.286Z,0.20
2018-12-08T22:46:32.775Z,1.17
2018-12-08T22:49:01.120Z,0.20
2018-12-08T22:51:29.497Z,0.67
2018-12-08T22:53:57.841Z,1.97
2018-12-08T22:56:26.176Z,0.70
2018-12-08T22:58:54.537Z,1.63
2018-12-08T23:01:23.097Z,2.47
2018-12-08T23:03:51.478Z,2.37
2018-12-08T23:06:19.837Z,3.20
2018-12-08T23:08:48.205Z,4.43
2018-12-08T23:11:16.521Z,2.00
2018-12-08T23:13:44.873Z,6.77
2018-12-08T23:16:13.393Z,7.43
2018-12-08T23:18:41.790Z,5.20
2018-12-08T23:21:10.216Z,4.17
2018-12-08T23:23:38.567Z,6.43
2018-12-08T23:26:06.919Z,5.43
2018-12-08T23:28:35.375Z,7.17
2018-12-08T23:31:03.871Z,7.53
2018-12-08T23:33:32.225Z,2.77
2018-12-08T23:36:00.567Z,8.60
2018-12-08T23:38:28.953Z,5.77
2018-12-08T23:40:57.309Z,5.47
2018-12-08T23:43:25.691Z,7.40
2018-12-08T23:45:54.009Z,11.03
2018-12-08T23:48:22.446Z,8.40
2018-12-08T23:50:50.905Z,5.50
2018-12-08T23:53:19.359Z,4.33
2018-12-08T23:55:47.726Z,3.17
2018-12-08T23:58:16.053Z,8.40
